createdAt,value
2017-12-10T00:00:42.903Z,10.60
2017-12-10T00:03:11.042Z,14.07
2017-12-10T00:05:39.926Z,17.10
2017-12-10T00:08:08.922Z,10.10
2017-12-10T00:10:37.803Z,9.60
2017-12-10T00:13:05.953Z,10.93
2017-12-10T00:15:34.082Z,8.83
2017-12-10T00:18:02.257Z,16.10
2017-12-10T00:20:30.421Z,14.30
2017-12-10T00:22:58.543Z,11.90
2017-12-10T00:25:26.679Z,8.77
2017-12-10T00:27:54.837Z,11.57
2017-12-10T00:30:23.789Z,11.40
2017-12-10T00:32:52.690Z,8.33
2017-12-10T00:35:20.825Z,9.27
2017-12-10T00:37:48.958Z,11.73
2017-12-10T00:40:17.890Z,8.37
2017-12-10T00:42:46.011Z,8.60
2017-12-10T00:45:14.272Z,8.50
2017-12-10T00:47:42.385Z,7.17
2017-12-10T00:50:10.560Z,9.07
2017-12-10T00:52:38.701Z,9.70
2017-12-10T00:55:06.850Z,8.50
2017-12-10T00:57:34.966Z,12.90
2017-12-10T01:00:03.928Z,14.67
2017-12-10T01:02:38.553Z,7.20
2017-12-10T01:05:07.482Z,10.40
2017-12-10T01:07:35.610Z,9.43
2017-12-10T01:10:03.759Z,6.43
2017-12-10T01:12:31.920Z,7.10
2017-12-10T01:15:00.109Z,11.17
2017-12-10T01:17:28.269Z,8.43
2017-12-10T01:19:56.413Z,7.53
2017-12-10T01:22:25.318Z,10.70
2017-12-10T01:24:53.468Z,5.70
2017-12-10T01:27:21.591Z,5.47
2017-12-10T01:29:49.766Z,6.27
2017-12-10T01:32:17.934Z,9.60
2017-12-10T01:34:46.118Z,5.40
2017-12-10T01:37:14.286Z,4.67
2017-12-10T01:39:42.451Z,18.23
2017-12-10T01:42:10.584Z,4.70
2017-12-10T01:44:38.734Z,4.73
2017-12-10T01:47:06.855Z,8.50
2017-12-10T01:49:34.993Z,9.67
2017-12-10T01:52:03.138Z,5.40
2017-12-10T01:54:31.310Z,10.17
2017-12-10T01:56:59.463Z,20.83
2017-12-10T01:59:27.604Z,7.63
2017-12-10T02:01:56.549Z,7.13
2017-12-10T02:04:24.672Z,5.83
2017-12-10T02:06:53.583Z,6.00
2017-12-10T02:09:21.704Z,5.50
2017-12-10T02:11:50.936Z,11.17
2017-12-10T02:14:19.538Z,9.50
2017-12-10T02:16:47.683Z,6.17
2017-12-10T02:19:16.591Z,8.20
2017-12-10T02:21:44.743Z,6.17
2017-12-10T02:24:13.661Z,9.83
2017-12-10T02:26:42.567Z,8.23
2017-12-10T02:29:10.694Z,6.10
2017-12-10T02:31:38.846Z,8.87
2017-12-10T02:34:06.985Z,8.67
2017-12-10T02:36:35.130Z,4.07
2017-12-10T02:39:04.015Z,7.73
2017-12-10T02:41:32.164Z,10.47
2017-12-10T02:44:00.296Z,13.70
2017-12-10T02:46:28.458Z,7.47
2017-12-10T02:48:56.578Z,7.00
2017-12-10T02:51:24.722Z,14.00
2017-12-10T02:53:52.846Z,12.30
2017-12-10T02:56:21.002Z,8.70
2017-12-10T02:58:49.162Z,12.60
2017-12-10T03:01:17.306Z,11.47
2017-12-10T03:03:45.418Z,6.57
2017-12-10T03:06:13.531Z,13.43
2017-12-10T03:08:43.355Z,7.63
2017-12-10T03:11:12.267Z,10.60
2017-12-10T03:13:40.430Z,9.60
2017-12-10T03:16:08.592Z,10.13
2017-12-10T03:18:37.518Z,8.53
2017-12-10T03:21:05.640Z,9.50
2017-12-10T03:23:34.546Z,11.20
2017-12-10T03:26:03.448Z,7.90
2017-12-10T03:28:31.597Z,9.07
2017-12-10T03:31:00.489Z,10.83
2017-12-10T03:33:28.646Z,10.30
2017-12-10T03:35:57.570Z,10.07
2017-12-10T03:38:25.710Z,7.07
2017-12-10T03:40:53.854Z,12.00
2017-12-10T03:43:22.009Z,14.10
2017-12-10T03:45:50.131Z,8.90
2017-12-10T03:48:18.285Z,12.10
2017-12-10T03:50:46.413Z,10.80
2017-12-10T03:53:14.560Z,8.80
2017-12-10T03:55:42.676Z,11.47
2017-12-10T03:58:10.839Z,10.60
2017-12-10T04:00:39.010Z,12.07
2017-12-10T04:03:07.166Z,10.67
2017-12-10T04:05:35.310Z,11.23
2017-12-10T04:08:03.464Z,9.00
2017-12-10T04:10:31.578Z,14.30
2017-12-10T04:13:00.487Z,11.70
2017-12-10T04:15:29.082Z,9.93
2017-12-10T04:17:57.246Z,11.57
2017-12-10T04:20:25.391Z,10.70
2017-12-10T04:22:54.297Z,11.20
2017-12-10T04:25:23.235Z,9.63
2017-12-10T04:27:51.362Z,15.60
2017-12-10T04:30:20.267Z,9.03
2017-12-10T04:32:48.422Z,9.37
2017-12-10T04:35:17.351Z,9.60
2017-12-10T04:37:46.066Z,8.00
2017-12-10T04:40:14.205Z,9.27
2017-12-10T04:42:43.903Z,10.00
2017-12-10T04:45:12.053Z,9.40
2017-12-10T04:47:40.170Z,13.80
2017-12-10T04:50:08.310Z,9.37
2017-12-10T04:52:37.204Z,10.33
2017-12-10T04:55:06.109Z,12.73
2017-12-10T04:57:34.233Z,9.03
2017-12-10T05:00:02.400Z,8.63
2017-12-10T05:02:36.098Z,7.37
2017-12-10T05:05:04.249Z,9.20
2017-12-10T05:07:32.367Z,9.40
2017-12-10T05:10:00.510Z,8.33
2017-12-10T05:12:28.635Z,9.03
2017-12-10T05:14:57.548Z,10.57
2017-12-10T05:17:25.671Z,7.77
2017-12-10T05:19:53.833Z,10.50
2017-12-10T05:22:21.967Z,10.33
2017-12-10T05:24:50.130Z,11.93
2017-12-10T05:27:18.274Z,11.80
2017-12-10T05:29:47.210Z,6.53
2017-12-10T05:32:15.331Z,7.20
2017-12-10T05:34:43.486Z,8.47
2017-12-10T05:37:12.754Z,8.50
2017-12-10T05:39:40.909Z,13.27
2017-12-10T05:42:09.034Z,8.27
2017-12-10T05:44:37.166Z,7.67
2017-12-10T05:47:05.290Z,9.83
2017-12-10T05:49:33.479Z,7.73
2017-12-10T05:52:01.592Z,6.13
2017-12-10T05:54:29.738Z,12.10
2017-12-10T05:56:58.626Z,5.60
2017-12-10T05:59:27.573Z,8.23
2017-12-10T06:01:56.867Z,10.57
2017-12-10T06:04:25.005Z,7.03
2017-12-10T06:06:53.158Z,5.37
2017-12-10T06:09:21.268Z,6.20
2017-12-10T06:11:49.415Z,7.70
2017-12-10T06:14:18.289Z,4.93
2017-12-10T06:16:46.425Z,6.80
2017-12-10T06:19:14.537Z,8.63
2017-12-10T06:21:42.686Z,9.90
2017-12-10T06:24:10.804Z,7.73
2017-12-10T06:26:39.815Z,10.13
2017-12-10T06:29:07.988Z,11.70
2017-12-10T06:31:36.149Z,6.00
2017-12-10T06:34:05.052Z,10.90
2017-12-10T06:36:33.224Z,5.33
2017-12-10T06:39:01.368Z,13.07
2017-12-10T06:41:29.523Z,8.53
2017-12-10T06:43:57.704Z,9.03
2017-12-10T06:46:25.820Z,7.10
2017-12-10T06:48:53.934Z,8.70
2017-12-10T06:51:22.091Z,7.20
2017-12-10T06:53:50.230Z,6.50
2017-12-10T06:56:19.138Z,9.37
2017-12-10T06:58:47.262Z,8.00
2017-12-10T07:01:15.418Z,8.13
2017-12-10T07:03:43.541Z,11.27
2017-12-10T07:06:11.657Z,10.63
2017-12-10T07:08:39.790Z,11.73
2017-12-10T07:11:07.913Z,9.63
2017-12-10T07:13:39.885Z,9.13
2017-12-10T07:16:14.355Z,9.20
2017-12-10T07:18:42.485Z,10.27
2017-12-10T07:21:10.602Z,9.03
2017-12-10T07:23:38.742Z,10.03
2017-12-10T07:26:06.858Z,11.73
2017-12-10T07:28:35.021Z,11.10
2017-12-10T07:31:03.210Z,10.40
2017-12-10T07:33:31.370Z,10.93
2017-12-10T07:35:59.485Z,9.47
2017-12-10T07:38:27.617Z,13.37
2017-12-10T07:40:55.733Z,10.30
2017-12-10T07:43:23.868Z,14.40
2017-12-10T07:45:51.996Z,9.00
2017-12-10T07:48:20.171Z,8.27
2017-12-10T07:50:48.290Z,9.70
2017-12-10T07:53:16.430Z,9.70
2017-12-10T07:55:45.320Z,8.50
2017-12-10T07:58:14.264Z,12.80
2017-12-10T08:00:43.229Z,11.07
2017-12-10T08:03:11.382Z,15.50
2017-12-10T08:05:40.289Z,9.90
2017-12-10T08:08:09.232Z,13.23
2017-12-10T08:10:37.382Z,10.87
2017-12-10T08:13:05.538Z,11.53
2017-12-10T08:15:33.666Z,8.30
2017-12-10T08:18:03.058Z,9.97
2017-12-10T08:20:31.198Z,13.70
2017-12-10T08:22:59.382Z,11.20
2017-12-10T08:25:27.512Z,14.13
2017-12-10T08:27:56.431Z,11.00
2017-12-10T08:30:24.557Z,13.90
2017-12-10T08:32:52.775Z,8.93
2017-12-10T08:35:20.944Z,13.40
2017-12-10T08:37:49.882Z,11.03
2017-12-10T08:40:18.030Z,11.90
2017-12-10T08:42:46.479Z,11.03
2017-12-10T08:45:14.729Z,16.97
2017-12-10T08:47:42.862Z,10.33
2017-12-10T08:50:11.013Z,17.40
2017-12-10T08:52:39.150Z,14.97
2017-12-10T08:55:07.299Z,11.90
2017-12-10T08:57:35.424Z,13.47
2017-12-10T09:00:03.567Z,13.83
2017-12-10T09:02:38.046Z,14.00
2017-12-10T09:05:06.231Z,14.10
2017-12-10T09:07:34.343Z,15.60
2017-12-10T09:10:02.477Z,10.00
2017-12-10T09:12:30.632Z,8.40
2017-12-10T09:14:59.036Z,6.30
2017-12-10T09:17:27.215Z,11.53
2017-12-10T09:19:55.392Z,9.43
2017-12-10T09:22:23.514Z,10.07
2017-12-10T09:24:51.661Z,6.90
2017-12-10T09:27:19.785Z,10.50
2017-12-10T09:29:47.939Z,14.10
2017-12-10T09:32:16.099Z,7.27
2017-12-10T09:34:44.265Z,12.07
2017-12-10T09:37:12.408Z,9.10
2017-12-10T09:39:40.558Z,10.30
2017-12-10T09:42:08.727Z,10.70
2017-12-10T09:44:37.352Z,10.77
2017-12-10T09:47:05.507Z,11.33
2017-12-10T09:49:34.840Z,10.43
2017-12-10T09:52:03.749Z,12.50
2017-12-10T09:54:31.884Z,9.67
2017-12-10T09:57:00.023Z,7.37
2017-12-10T09:59:28.135Z,6.30
2017-12-10T10:01:56.289Z,10.77
2017-12-10T10:04:24.423Z,9.50
2017-12-10T10:06:52.551Z,8.90
2017-12-10T10:09:20.681Z,11.20
2017-12-10T10:11:48.838Z,8.63
2017-12-10T10:14:16.971Z,9.40
2017-12-10T10:16:45.141Z,15.17
2017-12-10T10:19:13.260Z,7.33
2017-12-10T10:21:41.426Z,9.63
2017-12-10T10:24:10.303Z,8.70
2017-12-10T10:26:39.226Z,7.07
2017-12-10T10:29:07.346Z,5.73
2017-12-10T10:31:35.489Z,8.70
2017-12-10T10:34:04.695Z,6.70
2017-12-10T10:36:32.845Z,9.80
2017-12-10T10:39:00.973Z,6.90
2017-12-10T10:41:29.126Z,5.73
2017-12-10T10:43:57.247Z,8.80
2017-12-10T10:46:25.402Z,5.07
2017-12-10T10:48:53.535Z,6.10
2017-12-10T10:51:21.676Z,10.13
2017-12-10T10:53:49.850Z,10.60
2017-12-10T10:56:17.990Z,11.40
2017-12-10T10:58:46.155Z,6.50
2017-12-10T11:01:14.880Z,8.83
2017-12-10T11:03:43.750Z,8.87
2017-12-10T11:06:12.651Z,17.83
2017-12-10T11:08:41.565Z,6.53
2017-12-10T11:11:09.690Z,6.70
2017-12-10T11:13:37.842Z,5.90
2017-12-10T11:16:05.954Z,8.10
2017-12-10T11:18:34.865Z,9.27
2017-12-10T11:21:02.973Z,4.47
2017-12-10T11:23:31.127Z,10.20
2017-12-10T11:25:59.272Z,5.50
2017-12-10T11:28:27.422Z,8.37
2017-12-10T11:30:55.546Z,4.00
2017-12-10T11:33:23.687Z,3.50
2017-12-10T11:35:52.589Z,5.60
2017-12-10T11:38:21.581Z,7.07
2017-12-10T11:40:49.704Z,10.17
2017-12-10T11:43:17.876Z,11.17
2017-12-10T11:45:46.253Z,5.70
2017-12-10T11:48:14.390Z,8.70
2017-12-10T11:50:42.510Z,5.43
2017-12-10T11:53:10.727Z,4.33
2017-12-10T11:55:39.729Z,8.53
2017-12-10T11:58:08.019Z,6.50
2017-12-10T12:00:36.226Z,4.57
2017-12-10T12:03:04.385Z,7.50
2017-12-10T12:05:33.575Z,7.57
2017-12-10T12:08:01.717Z,5.37
2017-12-10T12:10:29.875Z,5.10
2017-12-10T12:12:58.033Z,7.50
2017-12-10T12:15:26.166Z,13.10
2017-12-10T12:17:54.422Z,8.03
2017-12-10T12:20:22.567Z,8.67
2017-12-10T12:22:50.758Z,5.90
2017-12-10T12:25:19.889Z,8.63
2017-12-10T12:27:48.351Z,8.63
2017-12-10T12:30:16.646Z,6.83
2017-12-10T12:32:44.875Z,9.57
2017-12-10T12:35:13.777Z,11.03
2017-12-10T12:37:42.011Z,6.20
2017-12-10T12:40:10.208Z,6.53
2017-12-10T12:42:38.410Z,10.00
2017-12-10T12:45:06.556Z,8.33
2017-12-10T12:47:34.745Z,6.73
2017-12-10T12:50:03.698Z,8.13
2017-12-10T12:52:32.198Z,13.13
2017-12-10T12:55:00.699Z,7.43
2017-12-10T12:57:29.029Z,5.80
2017-12-10T12:59:57.168Z,7.37
2017-12-10T13:02:25.295Z,6.27
2017-12-10T13:04:54.796Z,3.90
2017-12-10T13:07:23.256Z,6.03
2017-12-10T13:09:51.526Z,5.23
2017-12-10T13:12:20.199Z,5.20
2017-12-10T13:14:48.383Z,9.87
2017-12-10T13:17:16.590Z,8.90
2017-12-10T13:19:45.853Z,6.80
2017-12-10T13:22:14.212Z,7.77
2017-12-10T13:24:42.350Z,9.23
2017-12-10T13:27:10.837Z,9.80
2017-12-10T13:29:39.408Z,12.50
2017-12-10T13:32:07.647Z,9.20
2017-12-10T13:34:35.766Z,9.03
2017-12-10T13:37:03.918Z,10.17
2017-12-10T13:39:32.044Z,6.87
2017-12-10T13:42:00.976Z,7.13
2017-12-10T13:44:30.026Z,9.87
2017-12-10T13:46:59.155Z,11.20
2017-12-10T13:49:27.622Z,15.03
2017-12-10T13:51:55.899Z,7.67
2017-12-10T13:54:24.079Z,7.90
2017-12-10T13:56:52.217Z,7.70
2017-12-10T13:59:21.126Z,11.53
2017-12-10T14:01:49.270Z,7.50
2017-12-10T14:04:17.414Z,8.87
2017-12-10T14:06:45.550Z,9.97
2017-12-10T14:09:14.110Z,7.37
2017-12-10T14:11:42.265Z,10.53
2017-12-10T14:14:15.954Z,8.53
2017-12-10T14:16:44.267Z,9.83
2017-12-10T14:19:12.424Z,6.47
2017-12-10T14:21:40.543Z,5.27
2017-12-10T14:24:08.685Z,8.80
2017-12-10T14:26:36.799Z,9.07
2017-12-10T14:29:04.947Z,10.13
2017-12-10T14:31:33.827Z,10.73
2017-12-10T14:34:02.781Z,9.47
2017-12-10T14:36:30.925Z,12.97
2017-12-10T14:38:59.074Z,7.90
2017-12-10T14:41:27.994Z,5.93
2017-12-10T14:43:56.149Z,7.00
2017-12-10T14:46:25.043Z,9.43
2017-12-10T14:48:53.186Z,9.33
2017-12-10T14:51:21.302Z,9.83
2017-12-10T14:53:49.437Z,10.00
2017-12-10T14:56:18.335Z,7.83
2017-12-10T14:58:47.234Z,6.57
2017-12-10T15:01:17.414Z,10.13
2017-12-10T15:03:46.397Z,8.73
2017-12-10T15:06:14.510Z,8.20
2017-12-10T15:08:42.658Z,11.13
2017-12-10T15:11:10.785Z,8.17
2017-12-10T15:13:38.936Z,9.60
2017-12-10T15:16:07.087Z,9.67
2017-12-10T15:18:36.012Z,8.30
2017-12-10T15:21:04.970Z,9.17
2017-12-10T15:23:33.090Z,7.20
2017-12-10T15:26:01.222Z,5.40
2017-12-10T15:28:29.343Z,6.23
2017-12-10T15:30:57.490Z,14.37
2017-12-10T15:33:26.382Z,10.20
2017-12-10T15:35:55.328Z,5.13
2017-12-10T15:38:23.533Z,8.07
2017-12-10T15:40:52.094Z,8.63
2017-12-10T15:43:20.205Z,8.90
2017-12-10T15:45:49.098Z,4.17
2017-12-10T15:48:17.987Z,3.97
2017-12-10T15:50:46.993Z,5.43
2017-12-10T15:53:15.308Z,5.63
2017-12-10T15:55:43.465Z,9.17
2017-12-10T15:58:11.586Z,6.50
2017-12-10T16:00:40.350Z,5.07
2017-12-10T16:03:08.459Z,4.60
2017-12-10T16:05:36.593Z,7.37
2017-12-10T16:08:04.718Z,5.40
2017-12-10T16:10:33.805Z,4.93
2017-12-10T16:13:02.807Z,5.50
2017-12-10T16:15:30.971Z,5.57
2017-12-10T16:17:59.859Z,4.70
2017-12-10T16:20:28.086Z,6.43
2017-12-10T16:22:56.542Z,4.30
2017-12-10T16:25:24.707Z,5.10
2017-12-10T16:27:53.594Z,7.17
2017-12-10T16:30:22.496Z,7.77
2017-12-10T16:32:50.649Z,5.77
2017-12-10T16:35:19.566Z,6.37
2017-12-10T16:37:47.706Z,6.37
2017-12-10T16:40:15.828Z,4.97
2017-12-10T16:42:43.981Z,7.27
2017-12-10T16:45:12.152Z,4.30
2017-12-10T16:47:40.293Z,4.80
2017-12-10T16:50:08.410Z,6.67
2017-12-10T16:52:36.554Z,4.70
2017-12-10T16:55:04.667Z,6.60
2017-12-10T16:57:33.191Z,4.50
2017-12-10T17:00:01.308Z,7.40
2017-12-10T17:02:29.472Z,6.80
2017-12-10T17:04:57.581Z,5.70
2017-12-10T17:07:25.738Z,5.10
2017-12-10T17:09:53.879Z,12.73
2017-12-10T17:12:22.815Z,7.20
2017-12-10T17:14:50.946Z,6.67
2017-12-10T17:17:19.102Z,5.63
2017-12-10T17:19:47.230Z,8.13
2017-12-10T17:22:15.390Z,6.93
2017-12-10T17:24:43.506Z,5.77
2017-12-10T17:27:11.651Z,9.43
2017-12-10T17:29:39.778Z,9.97
2017-12-10T17:32:07.910Z,6.60
2017-12-10T17:34:36.029Z,5.80
2017-12-10T17:37:04.220Z,8.93
2017-12-10T17:39:32.378Z,5.80
2017-12-10T17:42:01.282Z,8.07
2017-12-10T17:44:29.437Z,6.67
2017-12-10T17:46:58.323Z,7.40
2017-12-10T17:49:26.465Z,7.23
2017-12-10T17:51:54.589Z,7.60
2017-12-10T17:54:22.760Z,6.10
2017-12-10T17:56:51.654Z,8.83
2017-12-10T17:59:20.582Z,9.67
2017-12-10T18:01:48.730Z,11.10
2017-12-10T18:04:16.898Z,8.83
2017-12-10T18:06:45.773Z,12.57
2017-12-10T18:09:14.700Z,11.30
2017-12-10T18:11:42.830Z,11.50
2017-12-10T18:14:10.970Z,9.20
2017-12-10T18:16:39.134Z,10.70
2017-12-10T18:19:07.290Z,13.37
2017-12-10T18:21:35.424Z,14.40
2017-12-10T18:24:03.582Z,8.73
2017-12-10T18:26:31.716Z,8.97
2017-12-10T18:28:59.867Z,12.07
2017-12-10T18:31:27.998Z,14.70
2017-12-10T18:33:56.171Z,14.27
2017-12-10T18:36:24.291Z,15.07
2017-12-10T18:38:52.502Z,13.53
2017-12-10T18:41:20.670Z,15.83
2017-12-10T18:43:48.819Z,12.10
2017-12-10T18:46:16.961Z,29.60
2017-12-10T18:48:45.885Z,14.87
2017-12-10T18:51:14.032Z,17.20
2017-12-10T18:53:42.958Z,18.80
2017-12-10T18:56:12.439Z,24.13
2017-12-10T18:58:41.326Z,16.90
2017-12-10T19:01:10.249Z,20.67
2017-12-10T19:03:38.371Z,17.57
2017-12-10T19:06:06.522Z,15.40
2017-12-10T19:08:34.650Z,16.33
2017-12-10T19:11:02.910Z,19.20
2017-12-10T19:13:31.816Z,19.10
2017-12-10T19:15:59.988Z,15.83
2017-12-10T19:18:28.871Z,20.57
2017-12-10T19:20:57.787Z,19.70
2017-12-10T19:23:25.939Z,27.67
2017-12-10T19:25:54.864Z,25.07
2017-12-10T19:28:22.992Z,17.73
2017-12-10T19:30:51.906Z,23.40
2017-12-10T19:33:20.048Z,23.37
2017-12-10T19:35:48.201Z,27.70
2017-12-10T19:38:16.334Z,21.47
2017-12-10T19:40:44.490Z,22.33
2017-12-10T19:43:13.376Z,35.83
2017-12-10T19:45:42.308Z,28.67
2017-12-10T19:48:10.444Z,28.33
2017-12-10T19:50:39.391Z,18.60
2017-12-10T19:53:07.523Z,38.27
2017-12-10T19:55:35.693Z,25.53
2017-12-10T19:58:03.815Z,28.33
2017-12-10T20:00:31.946Z,18.27
2017-12-10T20:03:00.167Z,19.17
2017-12-10T20:05:28.310Z,24.43
2017-12-10T20:07:56.474Z,26.60
2017-12-10T20:10:24.599Z,28.87
2017-12-10T20:12:52.753Z,24.23
2017-12-10T20:15:20.883Z,28.10
2017-12-10T20:17:49.058Z,19.43
2017-12-10T20:20:17.221Z,20.83
2017-12-10T20:22:45.384Z,34.00
2017-12-10T20:25:14.276Z,21.83
2017-12-10T20:27:44.849Z,24.40
2017-12-10T20:30:12.986Z,24.43
2017-12-10T20:32:41.922Z,27.07
2017-12-10T20:35:10.083Z,23.07
2017-12-10T20:37:38.226Z,28.17
2017-12-10T20:40:07.145Z,25.10
2017-12-10T20:42:35.287Z,18.87
2017-12-10T20:45:04.170Z,20.97
2017-12-10T20:47:32.309Z,28.80
2017-12-10T20:50:00.427Z,28.23
2017-12-10T20:52:29.343Z,26.53
2017-12-10T20:54:58.785Z,31.53
2017-12-10T20:57:26.929Z,28.80
2017-12-10T20:59:55.103Z,23.00
2017-12-10T21:02:23.263Z,18.77
2017-12-10T21:04:51.378Z,15.63
2017-12-10T21:07:19.489Z,23.10
2017-12-10T21:09:48.405Z,37.50
2017-12-10T21:12:16.589Z,25.63
2017-12-10T21:14:44.727Z,36.10
2017-12-10T21:17:13.599Z,22.60
2017-12-10T21:19:41.743Z,28.87
2017-12-10T21:22:09.883Z,22.40
2017-12-10T21:24:38.039Z,25.27
2017-12-10T21:27:06.923Z,25.03
2017-12-10T21:29:35.868Z,19.10
2017-12-10T21:32:04.412Z,18.83
2017-12-10T21:34:32.625Z,21.70
2017-12-10T21:37:00.750Z,33.23
2017-12-10T21:39:29.682Z,27.80
2017-12-10T21:41:57.802Z,28.03
2017-12-10T21:44:25.952Z,22.97
2017-12-10T21:46:54.087Z,25.67
2017-12-10T21:49:23.271Z,24.50
2017-12-10T21:51:51.510Z,21.63
2017-12-10T21:54:19.658Z,22.00
2017-12-10T21:56:47.782Z,19.90
2017-12-10T21:59:16.739Z,13.67
2017-12-10T22:01:45.188Z,16.23
2017-12-10T22:04:13.942Z,21.30
2017-12-10T22:06:42.933Z,15.50
2017-12-10T22:09:11.853Z,19.23
2017-12-10T22:11:39.960Z,18.23
2017-12-10T22:14:08.118Z,14.17
2017-12-10T22:16:37.240Z,17.20
2017-12-10T22:19:05.422Z,14.77
2017-12-10T22:21:33.541Z,24.47
2017-12-10T22:24:01.742Z,21.53
2017-12-10T22:26:31.029Z,20.80
2017-12-10T22:28:59.177Z,14.37
2017-12-10T22:31:27.382Z,16.37
2017-12-10T22:33:55.666Z,16.90
2017-12-10T22:36:23.928Z,9.90
2017-12-10T22:38:52.050Z,9.77
2017-12-10T22:41:20.196Z,10.07
2017-12-10T22:43:48.309Z,20.70
2017-12-10T22:46:17.209Z,9.60
2017-12-10T22:48:46.091Z,9.00
2017-12-10T22:51:15.002Z,11.00
2017-12-10T22:53:43.126Z,7.07
2017-12-10T22:56:11.273Z,7.07
2017-12-10T22:58:39.390Z,7.80
2017-12-10T23:01:08.464Z,12.17
2017-12-10T23:03:36.575Z,8.83
2017-12-10T23:06:05.512Z,10.23
2017-12-10T23:08:33.639Z,12.40
2017-12-10T23:11:02.549Z,8.60
2017-12-10T23:13:42.434Z,8.10
2017-12-10T23:16:22.233Z,9.10
2017-12-10T23:18:51.134Z,14.13
2017-12-10T23:21:19.273Z,8.97
2017-12-10T23:23:47.405Z,12.83
2017-12-10T23:26:15.648Z,9.23
2017-12-10T23:28:44.537Z,10.30
2017-12-10T23:31:13.443Z,6.33
2017-12-10T23:33:41.561Z,8.90
2017-12-10T23:36:09.700Z,6.53
2017-12-10T23:38:37.838Z,5.73
2017-12-10T23:41:06.034Z,4.27
2017-12-10T23:43:34.158Z,2.80
2017-12-10T23:46:02.290Z,3.07
2017-12-10T23:48:30.398Z,1.50
2017-12-10T23:50:58.606Z,5.83
2017-12-10T23:53:26.719Z,4.87
2017-12-10T23:55:54.833Z,3.37
2017-12-10T23:58:22.980Z,1.73
